createdAt,value
2022-10-23T00:00:00.822Z,95797.00
2022-10-23T00:00:10.866Z,95798.00
2022-10-23T00:00:20.956Z,95795.00
2022-10-23T00:00:30.709Z,95798.00
2022-10-23T00:00:40.760Z,95797.00
2022-10-23T00:00:50.886Z,95799.00
2022-10-23T00:01:00.687Z,95797.00
2022-10-23T00:01:10.707Z,95795.00
2022-10-23T00:01:20.799Z,95796.00
2022-10-23T00:01:30.925Z,95798.00
2022-10-23T00:01:40.785Z,95798.00
2022-10-23T00:01:50.708Z,95796.00
2022-10-23T00:02:00.834Z,95797.00
2022-10-23T00:02:10.677Z,95797.00
2022-10-23T00:02:20.762Z,95800.00
2022-10-23T00:02:30.936Z,95797.00
2022-10-23T00:02:41.124Z,95796.00
2022-10-23T00:02:50.705Z,95797.00
2022-10-23T00:03:00.880Z,95795.00
2022-10-23T00:03:10.845Z,95797.00
2022-10-23T00:03:20.837Z,95798.00
2022-10-23T00:03:30.644Z,95803.00
2022-10-23T00:03:40.710Z,95797.00
2022-10-23T00:03:50.757Z,95802.00
2022-10-23T00:04:00.773Z,95797.00
2022-10-23T00:04:10.761Z,95795.00
2022-10-23T00:04:20.875Z,95794.00
2022-10-23T00:04:30.670Z,95795.00
2022-10-23T00:04:40.853Z,95797.00
2022-10-23T00:04:50.790Z,95799.00
2022-10-23T00:05:00.883Z,95805.00
2022-10-23T00:05:10.856Z,95802.00
2022-10-23T00:05:20.783Z,95798.00
2022-10-23T00:05:30.763Z,95801.00
2022-10-23T00:05:40.619Z,95803.00
2022-10-23T00:05:50.779Z,95800.00
2022-10-23T00:06:00.842Z,95798.00
2022-10-23T00:06:10.707Z,95799.00
2022-10-23T00:06:20.805Z,95797.00
2022-10-23T00:06:30.700Z,95802.00
2022-10-23T00:06:40.781Z,95804.00
2022-10-23T00:06:50.816Z,95800.00
2022-10-23T00:07:00.710Z,95800.00
2022-10-23T00:07:10.789Z,95803.00
2022-10-23T00:07:20.753Z,95802.00
2022-10-23T00:07:40.881Z,95803.00
2022-10-23T00:07:50.607Z,95803.00
2022-10-23T00:08:00.682Z,95803.00
2022-10-23T00:08:10.940Z,95801.00
2022-10-23T00:08:20.676Z,95801.00
2022-10-23T00:08:30.646Z,95796.00
2022-10-23T00:08:40.646Z,95799.00
2022-10-23T00:08:50.795Z,95801.00
2022-10-23T00:09:00.624Z,95801.00
2022-10-23T00:09:10.900Z,95801.00
2022-10-23T00:09:20.645Z,95802.00
2022-10-23T00:09:30.637Z,95799.00
2022-10-23T00:09:40.930Z,95803.00
2022-10-23T00:09:50.810Z,95799.00
2022-10-23T00:10:00.808Z,95798.00
2022-10-23T00:10:10.652Z,95801.00
2022-10-23T00:10:20.771Z,95801.00
2022-10-23T00:10:30.842Z,95799.00
2022-10-23T00:10:40.881Z,95803.00
2022-10-23T00:10:50.628Z,95796.00
2022-10-23T00:11:00.851Z,95798.00
2022-10-23T00:11:10.888Z,95799.00
2022-10-23T00:11:20.760Z,95801.00
2022-10-23T00:11:30.901Z,95800.00
2022-10-23T00:11:40.849Z,95797.00
2022-10-23T00:11:50.834Z,95800.00
2022-10-23T00:12:00.775Z,95803.00
2022-10-23T00:12:10.610Z,95800.00
2022-10-23T00:12:20.839Z,95800.00
2022-10-23T00:12:30.783Z,95801.00
2022-10-23T00:12:41.139Z,95799.00
2022-10-23T00:12:50.693Z,95802.00
2022-10-23T00:13:00.760Z,95798.00
2022-10-23T00:13:10.663Z,95803.00
2022-10-23T00:13:20.896Z,95800.00
2022-10-23T00:13:30.643Z,95799.00
2022-10-23T00:13:40.713Z,95794.00
2022-10-23T00:13:50.774Z,95797.00
2022-10-23T00:14:00.830Z,95801.00
2022-10-23T00:14:10.892Z,95800.00
2022-10-23T00:14:20.679Z,95802.00
2022-10-23T00:14:30.771Z,95800.00
2022-10-23T00:14:40.853Z,95799.00
2022-10-23T00:14:50.854Z,95799.00
2022-10-23T00:15:00.829Z,95796.00
2022-10-23T00:15:10.870Z,95801.00
2022-10-23T00:15:20.759Z,95800.00
2022-10-23T00:15:30.873Z,95800.00
2022-10-23T00:15:40.968Z,95799.00
2022-10-23T00:16:00.747Z,95800.00
2022-10-23T00:16:10.782Z,95799.00
2022-10-23T00:16:20.613Z,95805.00
2022-10-23T00:16:30.859Z,95800.00
2022-10-23T00:16:40.717Z,95801.00
2022-10-23T00:16:50.702Z,95801.00
2022-10-23T00:17:00.655Z,95798.00
2022-10-23T00:17:10.654Z,95801.00
2022-10-23T00:17:20.625Z,95803.00
2022-10-23T00:17:30.829Z,95801.00
2022-10-23T00:17:41.332Z,95801.00
2022-10-23T00:17:50.720Z,95802.00
2022-10-23T00:18:00.903Z,95801.00
2022-10-23T00:18:10.721Z,95801.00
2022-10-23T00:18:20.619Z,95800.00
2022-10-23T00:18:30.605Z,95800.00
2022-10-23T00:18:40.889Z,95802.00
2022-10-23T00:18:50.890Z,95802.00
2022-10-23T00:19:00.768Z,95799.00
2022-10-23T00:19:10.676Z,95799.00
2022-10-23T00:19:20.721Z,95798.00
2022-10-23T00:19:30.657Z,95800.00
2022-10-23T00:19:40.747Z,95800.00
2022-10-23T00:19:50.683Z,95797.00
2022-10-23T00:20:00.815Z,95800.00
2022-10-23T00:20:10.755Z,95797.00
2022-10-23T00:20:20.611Z,95801.00
2022-10-23T00:20:30.694Z,95801.00
2022-10-23T00:20:40.870Z,95795.00
2022-10-23T00:20:50.879Z,95798.00
2022-10-23T00:21:00.904Z,95794.00
2022-10-23T00:21:10.689Z,95789.00
2022-10-23T00:21:20.680Z,95795.00
2022-10-23T00:21:30.830Z,95794.00
2022-10-23T00:21:40.911Z,95797.00
2022-10-23T00:21:50.766Z,95791.00
2022-10-23T00:22:00.743Z,95791.00
2022-10-23T00:22:10.732Z,95794.00
2022-10-23T00:22:20.655Z,95791.00
2022-10-23T00:22:30.739Z,95795.00
2022-10-23T00:22:40.774Z,95793.00
2022-10-23T00:22:50.844Z,95795.00
2022-10-23T00:23:00.868Z,95792.00
2022-10-23T00:23:10.603Z,95795.00
2022-10-23T00:23:20.950Z,95796.00
2022-10-23T00:23:30.688Z,95793.00
2022-10-23T00:23:40.713Z,95797.00
2022-10-23T00:23:50.914Z,95792.00
2022-10-23T00:24:00.724Z,95795.00
2022-10-23T00:24:10.693Z,95793.00
2022-10-23T00:24:20.854Z,95795.00
2022-10-23T00:24:30.703Z,95795.00
2022-10-23T00:24:40.874Z,95796.00
2022-10-23T00:24:50.817Z,95794.00
2022-10-23T00:25:00.609Z,95795.00
2022-10-23T00:25:10.955Z,95793.00
2022-10-23T00:25:20.777Z,95799.00
2022-10-23T00:25:30.652Z,95798.00
2022-10-23T00:25:40.632Z,95797.00
2022-10-23T00:25:50.816Z,95800.00
2022-10-23T00:26:00.790Z,95801.00
2022-10-23T00:26:10.892Z,95798.00
2022-10-23T00:26:20.614Z,95797.00
2022-10-23T00:26:30.603Z,95798.00
2022-10-23T00:26:40.823Z,95800.00
2022-10-23T00:26:50.868Z,95799.00
2022-10-23T00:27:00.727Z,95807.00
2022-10-23T00:27:10.648Z,95805.00
2022-10-23T00:27:20.875Z,95803.00
2022-10-23T00:27:30.734Z,95803.00
2022-10-23T00:27:41.157Z,95806.00
2022-10-23T00:27:50.619Z,95804.00
2022-10-23T00:28:00.845Z,95804.00
2022-10-23T00:28:10.843Z,95804.00
2022-10-23T00:28:20.664Z,95801.00
2022-10-23T00:28:30.743Z,95803.00
2022-10-23T00:28:40.680Z,95807.00
2022-10-23T00:28:50.722Z,95808.00
2022-10-23T00:29:00.771Z,95806.00
2022-10-23T00:29:10.782Z,95805.00
2022-10-23T00:29:20.812Z,95804.00
2022-10-23T00:29:30.850Z,95807.00
2022-10-23T00:29:40.761Z,95808.00
2022-10-23T00:29:50.894Z,95804.00
2022-10-23T00:30:00.871Z,95805.00
2022-10-23T00:30:10.728Z,95803.00
2022-10-23T00:30:20.694Z,95809.00
2022-10-23T00:30:30.697Z,95809.00
2022-10-23T00:30:40.799Z,95808.00
2022-10-23T00:30:50.868Z,95804.00
2022-10-23T00:31:00.722Z,95807.00
2022-10-23T00:31:10.762Z,95802.00
2022-10-23T00:31:20.762Z,95809.00
2022-10-23T00:31:30.669Z,95804.00
2022-10-23T00:31:40.682Z,95802.00
2022-10-23T00:31:50.797Z,95804.00
2022-10-23T00:32:00.843Z,95806.00
2022-10-23T00:32:10.740Z,95801.00
2022-10-23T00:32:20.946Z,95802.00
2022-10-23T00:32:40.928Z,95803.00
2022-10-23T00:32:50.816Z,95803.00
2022-10-23T00:33:00.812Z,95802.00
2022-10-23T00:33:10.680Z,95804.00
2022-10-23T00:33:20.798Z,95800.00
2022-10-23T00:33:30.787Z,95804.00
2022-10-23T00:33:40.744Z,95802.00
2022-10-23T00:33:50.766Z,95801.00
2022-10-23T00:34:00.766Z,95799.00
2022-10-23T00:34:10.791Z,95799.00
2022-10-23T00:34:20.824Z,95800.00
2022-10-23T00:34:30.654Z,95797.00
2022-10-23T00:34:40.715Z,95799.00
2022-10-23T00:34:50.635Z,95800.00
2022-10-23T00:35:00.816Z,95804.00
2022-10-23T00:35:10.718Z,95800.00
2022-10-23T00:35:20.631Z,95799.00
2022-10-23T00:35:30.744Z,95800.00
2022-10-23T00:35:40.790Z,95801.00
2022-10-23T00:35:50.757Z,95802.00
2022-10-23T00:36:00.877Z,95801.00
2022-10-23T00:36:10.644Z,95801.00
2022-10-23T00:36:20.858Z,95800.00
2022-10-23T00:36:30.732Z,95803.00
2022-10-23T00:36:40.707Z,95799.00
2022-10-23T00:36:50.901Z,95800.00
2022-10-23T00:37:00.865Z,95801.00
2022-10-23T00:37:10.635Z,95801.00
2022-10-23T00:37:20.789Z,95801.00
2022-10-23T00:37:30.822Z,95804.00
2022-10-23T00:37:41.223Z,95801.00
2022-10-23T00:37:50.776Z,95799.00
2022-10-23T00:38:00.909Z,95800.00
2022-10-23T00:38:10.836Z,95798.00
2022-10-23T00:38:20.846Z,95801.00
2022-10-23T00:38:30.722Z,95800.00
2022-10-23T00:38:40.805Z,95798.00
2022-10-23T00:38:50.719Z,95798.00
2022-10-23T00:39:00.648Z,95799.00
2022-10-23T00:39:10.653Z,95798.00
2022-10-23T00:39:20.708Z,95800.00
2022-10-23T00:39:30.886Z,95800.00
2022-10-23T00:39:40.761Z,95799.00
2022-10-23T00:39:50.989Z,95802.00
2022-10-23T00:40:00.766Z,95800.00
2022-10-23T00:40:10.817Z,95798.00
2022-10-23T00:40:20.716Z,95799.00
2022-10-23T00:40:30.919Z,95800.00
2022-10-23T00:40:40.881Z,95800.00
2022-10-23T00:41:00.669Z,95799.00
2022-10-23T00:41:10.631Z,95800.00
2022-10-23T00:41:20.633Z,95796.00
2022-10-23T00:41:30.669Z,95797.00
2022-10-23T00:41:40.740Z,95797.00
2022-10-23T00:41:50.811Z,95799.00
2022-10-23T00:42:00.830Z,95801.00
2022-10-23T00:42:10.898Z,95797.00
2022-10-23T00:42:20.689Z,95797.00
2022-10-23T00:42:30.675Z,95796.00
2022-10-23T00:42:41.082Z,95798.00
2022-10-23T00:42:50.673Z,95798.00
2022-10-23T00:43:00.732Z,95799.00
2022-10-23T00:43:10.742Z,95798.00
2022-10-23T00:43:20.742Z,95796.00
2022-10-23T00:43:30.871Z,95795.00
2022-10-23T00:43:40.607Z,95797.00
2022-10-23T00:43:50.680Z,95796.00
2022-10-23T00:44:00.889Z,95796.00
2022-10-23T00:44:10.812Z,95797.00
2022-10-23T00:44:20.780Z,95799.00
2022-10-23T00:44:30.819Z,95798.00
2022-10-23T00:44:40.796Z,95796.00
2022-10-23T00:44:50.819Z,95797.00
2022-10-23T00:45:00.891Z,95796.00
2022-10-23T00:45:10.860Z,95800.00
2022-10-23T00:45:22.707Z,95798.00
2022-10-23T00:45:30.842Z,95797.00
2022-10-23T00:45:40.731Z,95795.00
2022-10-23T00:45:50.737Z,95798.00
2022-10-23T00:46:00.642Z,95797.00
2022-10-23T00:46:10.802Z,95802.00
2022-10-23T00:46:20.866Z,95797.00
2022-10-23T00:46:30.787Z,95795.00
2022-10-23T00:46:40.680Z,95797.00
2022-10-23T00:46:50.817Z,95802.00
2022-10-23T00:47:00.658Z,95795.00
2022-10-23T00:47:10.632Z,95796.00
2022-10-23T00:47:20.827Z,95799.00
2022-10-23T00:47:30.724Z,95797.00
2022-10-23T00:47:40.756Z,95802.00
2022-10-23T00:47:50.731Z,95799.00
2022-10-23T00:48:00.913Z,95797.00
2022-10-23T00:48:10.857Z,95798.00
2022-10-23T00:48:20.861Z,95800.00
2022-10-23T00:48:30.870Z,95804.00
2022-10-23T00:48:40.814Z,95799.00
2022-10-23T00:48:50.665Z,95798.00
2022-10-23T00:49:00.786Z,95801.00
2022-10-23T00:49:20.616Z,95800.00
2022-10-23T00:49:32.508Z,95802.00
2022-10-23T00:49:42.766Z,95800.00
2022-10-23T00:49:50.769Z,95801.00
2022-10-23T00:50:00.657Z,95799.00
2022-10-23T00:50:10.884Z,95798.00
2022-10-23T00:50:20.675Z,95798.00
2022-10-23T00:50:30.762Z,95797.00
2022-10-23T00:50:40.821Z,95798.00
2022-10-23T00:50:50.885Z,95794.00
2022-10-23T00:51:00.775Z,95795.00
2022-10-23T00:51:10.908Z,95798.00
2022-10-23T00:51:20.802Z,95797.00
2022-10-23T00:51:30.726Z,95798.00
2022-10-23T00:51:40.801Z,95799.00
2022-10-23T00:51:50.783Z,95799.00
2022-10-23T00:52:00.938Z,95799.00
2022-10-23T00:52:10.769Z,95792.00
2022-10-23T00:52:20.864Z,95799.00
2022-10-23T00:52:30.764Z,95798.00
2022-10-23T00:52:41.141Z,95795.00
2022-10-23T00:52:50.684Z,95800.00
2022-10-23T00:53:00.712Z,95797.00
2022-10-23T00:53:10.649Z,95798.00
2022-10-23T00:53:20.693Z,95798.00
2022-10-23T00:53:30.780Z,95801.00
2022-10-23T00:53:40.680Z,95801.00
2022-10-23T00:54:01.082Z,95800.00
2022-10-23T00:54:22.865Z,95802.00
2022-10-23T00:54:25.082Z,95800.00
2022-10-23T00:54:30.772Z,95800.00
2022-10-23T00:54:40.692Z,95799.00
2022-10-23T00:54:50.720Z,95799.00
2022-10-23T00:55:00.727Z,95799.00
2022-10-23T00:55:10.790Z,95801.00
2022-10-23T00:55:20.697Z,95801.00
2022-10-23T00:55:30.659Z,95802.00
2022-10-23T00:55:40.674Z,95799.00
2022-10-23T00:55:50.873Z,95801.00
2022-10-23T00:56:00.776Z,95802.00
2022-10-23T00:56:10.697Z,95800.00
2022-10-23T00:56:20.805Z,95803.00
2022-10-23T00:56:30.639Z,95802.00
2022-10-23T00:56:40.864Z,95804.00
2022-10-23T00:56:50.749Z,95800.00
2022-10-23T00:57:00.830Z,95798.00
2022-10-23T00:57:10.775Z,95799.00
2022-10-23T00:57:20.678Z,95802.00
2022-10-23T00:57:30.765Z,95802.00
2022-10-23T00:57:40.678Z,95801.00
2022-10-23T00:57:50.684Z,95801.00
2022-10-23T00:58:00.812Z,95798.00
2022-10-23T00:58:10.651Z,95798.00
2022-10-23T00:58:20.759Z,95802.00
2022-10-23T00:58:30.880Z,95799.00
2022-10-23T00:58:40.793Z,95800.00
2022-10-23T00:58:50.876Z,95802.00
2022-10-23T00:59:00.649Z,95801.00
2022-10-23T00:59:10.896Z,95800.00
2022-10-23T00:59:20.691Z,95796.00
2022-10-23T00:59:30.791Z,95799.00
2022-10-23T00:59:40.862Z,95798.00
2022-10-23T00:59:50.852Z,95796.00
2022-10-23T01:00:00.700Z,95796.00
2022-10-23T01:00:10.807Z,95799.00
2022-10-23T01:00:20.714Z,95800.00
2022-10-23T01:00:30.660Z,95799.00
2022-10-23T01:00:40.758Z,95797.00
2022-10-23T01:00:50.869Z,95798.00
2022-10-23T01:01:00.916Z,95801.00
2022-10-23T01:01:10.734Z,95801.00
2022-10-23T01:01:20.994Z,95800.00
2022-10-23T01:01:30.719Z,95801.00
2022-10-23T01:01:40.813Z,95801.00
2022-10-23T01:01:50.763Z,95797.00
2022-10-23T01:02:01.014Z,95798.00
2022-10-23T01:02:10.828Z,95803.00
2022-10-23T01:02:21.113Z,95800.00
2022-10-23T01:02:30.743Z,95802.00
2022-10-23T01:02:41.402Z,95800.00
2022-10-23T01:02:50.815Z,95800.00
2022-10-23T01:03:00.812Z,95797.00
2022-10-23T01:03:10.706Z,95800.00
2022-10-23T01:03:20.802Z,95801.00
2022-10-23T01:03:30.646Z,95798.00
2022-10-23T01:03:40.817Z,95800.00
2022-10-23T01:03:50.776Z,95799.00
2022-10-23T01:04:00.684Z,95801.00
2022-10-23T01:04:10.729Z,95802.00
2022-10-23T01:04:20.662Z,95799.00
2022-10-23T01:04:30.897Z,95803.00
2022-10-23T01:04:40.709Z,95800.00
2022-10-23T01:04:50.863Z,95799.00
2022-10-23T01:05:00.639Z,95798.00
2022-10-23T01:05:10.759Z,95802.00
2022-10-23T01:05:20.882Z,95797.00
2022-10-23T01:05:30.868Z,95800.00
2022-10-23T01:05:40.769Z,95798.00
2022-10-23T01:05:50.794Z,95801.00
2022-10-23T01:06:00.864Z,95800.00
2022-10-23T01:06:10.800Z,95797.00
2022-10-23T01:06:20.687Z,95799.00
2022-10-23T01:06:30.832Z,95798.00
2022-10-23T01:06:40.743Z,95799.00
2022-10-23T01:06:50.814Z,95795.00
2022-10-23T01:07:00.706Z,95793.00
2022-10-23T01:07:10.915Z,95797.00
2022-10-23T01:07:20.879Z,95798.00
2022-10-23T01:07:30.660Z,95798.00
2022-10-23T01:07:41.275Z,95795.00
2022-10-23T01:07:50.653Z,95796.00
2022-10-23T01:08:00.775Z,95794.00
2022-10-23T01:08:10.863Z,95793.00
2022-10-23T01:08:20.687Z,95793.00
2022-10-23T01:08:30.713Z,95792.00
2022-10-23T01:08:40.892Z,95796.00
2022-10-23T01:08:50.755Z,95795.00
2022-10-23T01:09:00.901Z,95797.00
2022-10-23T01:09:10.914Z,95795.00
2022-10-23T01:09:20.669Z,95793.00
2022-10-23T01:09:30.688Z,95796.00
2022-10-23T01:09:40.673Z,95794.00
2022-10-23T01:09:50.674Z,95793.00
2022-10-23T01:10:00.614Z,95792.00
2022-10-23T01:10:10.909Z,95793.00
2022-10-23T01:10:20.716Z,95793.00
2022-10-23T01:10:30.736Z,95792.00
2022-10-23T01:10:40.665Z,95794.00
2022-10-23T01:10:50.672Z,95791.00
2022-10-23T01:11:00.628Z,95791.00
2022-10-23T01:11:10.786Z,95791.00
2022-10-23T01:11:20.902Z,95794.00
2022-10-23T01:11:30.890Z,95793.00
2022-10-23T01:11:40.679Z,95796.00
2022-10-23T01:11:50.709Z,95795.00
2022-10-23T01:12:00.857Z,95792.00
2022-10-23T01:12:10.750Z,95791.00
2022-10-23T01:12:20.907Z,95788.00
2022-10-23T01:12:30.843Z,95792.00
2022-10-23T01:12:40.757Z,95794.00
2022-10-23T01:12:50.689Z,95792.00
2022-10-23T01:13:00.715Z,95791.00
2022-10-23T01:13:10.934Z,95792.00
2022-10-23T01:13:20.936Z,95792.00
2022-10-23T01:13:30.706Z,95790.00
2022-10-23T01:13:40.731Z,95791.00
2022-10-23T01:13:50.687Z,95790.00
2022-10-23T01:14:00.872Z,95789.00
2022-10-23T01:14:10.789Z,95789.00
2022-10-23T01:14:20.825Z,95789.00
2022-10-23T01:14:30.748Z,95791.00
2022-10-23T01:14:40.742Z,95791.00
2022-10-23T01:14:50.694Z,95786.00
2022-10-23T01:15:00.746Z,95789.00
2022-10-23T01:15:10.733Z,95789.00
2022-10-23T01:15:20.843Z,95783.00
2022-10-23T01:15:30.783Z,95785.00
2022-10-23T01:15:40.912Z,95790.00
2022-10-23T01:15:50.700Z,95783.00
2022-10-23T01:16:00.842Z,95784.00
2022-10-23T01:16:10.812Z,95783.00
2022-10-23T01:16:20.794Z,95785.00
2022-10-23T01:16:30.678Z,95785.00
2022-10-23T01:16:40.671Z,95784.00
2022-10-23T01:16:50.696Z,95780.00
2022-10-23T01:17:00.632Z,95782.00
2022-10-23T01:17:10.754Z,95784.00
2022-10-23T01:17:20.836Z,95781.00
2022-10-23T01:17:30.743Z,95778.00
2022-10-23T01:17:43.707Z,95781.00
2022-10-23T01:17:51.216Z,95776.00
2022-10-23T01:18:00.750Z,95779.00
2022-10-23T01:18:10.819Z,95781.00
2022-10-23T01:18:20.768Z,95776.00
2022-10-23T01:18:30.683Z,95776.00
2022-10-23T01:18:40.769Z,95778.00
2022-10-23T01:18:50.853Z,95777.00
2022-10-23T01:19:00.903Z,95777.00
2022-10-23T01:19:10.760Z,95778.00
2022-10-23T01:19:20.639Z,95777.00
2022-10-23T01:19:30.937Z,95774.00
2022-10-23T01:19:40.718Z,95779.00
2022-10-23T01:19:50.914Z,95778.00
2022-10-23T01:20:00.816Z,95781.00
2022-10-23T01:20:10.738Z,95783.00
2022-10-23T01:20:20.782Z,95777.00
2022-10-23T01:20:30.620Z,95780.00
2022-10-23T01:20:40.702Z,95779.00
2022-10-23T01:20:50.831Z,95780.00
2022-10-23T01:21:00.813Z,95782.00
2022-10-23T01:21:10.800Z,95781.00
2022-10-23T01:21:20.660Z,95779.00
2022-10-23T01:21:30.721Z,95780.00
2022-10-23T01:21:40.937Z,95777.00
2022-10-23T01:21:50.603Z,95781.00
2022-10-23T01:22:00.708Z,95778.00
2022-10-23T01:22:10.645Z,95780.00
2022-10-23T01:22:20.900Z,95779.00
2022-10-23T01:22:30.610Z,95780.00
2022-10-23T01:22:41.118Z,95776.00
2022-10-23T01:22:50.665Z,95777.00
2022-10-23T01:23:00.903Z,95773.00
2022-10-23T01:23:10.763Z,95778.00
2022-10-23T01:23:20.872Z,95777.00
2022-10-23T01:23:30.723Z,95780.00
2022-10-23T01:23:40.668Z,95779.00
2022-10-23T01:23:50.689Z,95776.00
2022-10-23T01:24:00.670Z,95776.00
2022-10-23T01:24:10.675Z,95774.00
2022-10-23T01:24:20.865Z,95777.00
2022-10-23T01:24:30.668Z,95777.00
2022-10-23T01:24:40.874Z,95778.00
2022-10-23T01:24:50.746Z,95779.00
2022-10-23T01:25:00.614Z,95774.00
2022-10-23T01:25:10.679Z,95774.00
2022-10-23T01:25:20.666Z,95776.00
2022-10-23T01:25:30.648Z,95774.00
2022-10-23T01:25:40.702Z,95776.00
2022-10-23T01:25:50.846Z,95777.00
2022-10-23T01:26:00.819Z,95774.00
2022-10-23T01:26:10.820Z,95778.00
2022-10-23T01:26:20.746Z,95779.00
2022-10-23T01:26:30.688Z,95774.00
2022-10-23T01:26:40.796Z,95774.00
2022-10-23T01:26:50.745Z,95777.00
2022-10-23T01:27:00.786Z,95776.00
2022-10-23T01:27:10.785Z,95776.00
2022-10-23T01:27:20.674Z,95773.00
2022-10-23T01:27:30.731Z,95774.00
2022-10-23T01:27:40.759Z,95775.00
2022-10-23T01:27:50.873Z,95774.00
2022-10-23T01:28:00.648Z,95772.00
2022-10-23T01:28:10.702Z,95770.00
2022-10-23T01:28:20.899Z,95773.00
2022-10-23T01:28:30.938Z,95774.00
2022-10-23T01:28:40.768Z,95773.00
2022-10-23T01:28:50.739Z,95774.00
2022-10-23T01:29:00.719Z,95772.00
2022-10-23T01:29:10.845Z,95772.00
2022-10-23T01:29:20.791Z,95773.00
2022-10-23T01:29:30.886Z,95771.00
2022-10-23T01:29:40.713Z,95774.00
2022-10-23T01:29:50.782Z,95772.00
2022-10-23T01:30:00.770Z,95769.00
2022-10-23T01:30:10.657Z,95769.00
2022-10-23T01:30:20.866Z,95768.00
2022-10-23T01:30:30.899Z,95767.00
2022-10-23T01:30:50.692Z,95770.00
2022-10-23T01:31:00.696Z,95766.00
2022-10-23T01:31:10.844Z,95766.00
2022-10-23T01:31:20.685Z,95769.00
2022-10-23T01:31:30.809Z,95768.00
2022-10-23T01:31:40.817Z,95768.00
2022-10-23T01:31:50.882Z,95769.00
2022-10-23T01:32:00.693Z,95771.00
2022-10-23T01:32:10.603Z,95767.00
2022-10-23T01:32:20.738Z,95766.00
2022-10-23T01:32:30.643Z,95768.00
2022-10-23T01:32:41.117Z,95769.00
2022-10-23T01:32:50.917Z,95764.00
2022-10-23T01:33:00.902Z,95767.00
2022-10-23T01:33:10.892Z,95764.00
2022-10-23T01:33:20.892Z,95764.00
2022-10-23T01:33:30.841Z,95764.00
2022-10-23T01:33:40.677Z,95767.00
2022-10-23T01:33:50.666Z,95763.00
2022-10-23T01:34:00.781Z,95767.00
2022-10-23T01:34:10.743Z,95763.00
2022-10-23T01:34:20.914Z,95764.00
2022-10-23T01:34:30.644Z,95764.00
2022-10-23T01:34:40.801Z,95763.00
2022-10-23T01:34:50.641Z,95764.00
2022-10-23T01:35:00.867Z,95763.00
2022-10-23T01:35:10.754Z,95766.00
2022-10-23T01:35:20.807Z,95767.00
2022-10-23T01:35:30.774Z,95764.00
2022-10-23T01:35:40.878Z,95765.00
2022-10-23T01:35:50.673Z,95763.00
2022-10-23T01:36:00.797Z,95765.00
2022-10-23T01:36:10.912Z,95768.00
2022-10-23T01:36:20.719Z,95764.00
2022-10-23T01:36:30.715Z,95763.00
2022-10-23T01:36:40.615Z,95765.00
2022-10-23T01:36:50.820Z,95766.00
2022-10-23T01:37:00.746Z,95769.00
2022-10-23T01:37:10.677Z,95764.00
2022-10-23T01:37:20.825Z,95763.00
2022-10-23T01:37:30.729Z,95767.00
2022-10-23T01:37:40.621Z,95764.00
2022-10-23T01:37:50.786Z,95764.00
2022-10-23T01:38:00.863Z,95766.00
2022-10-23T01:38:10.751Z,95770.00
2022-10-23T01:38:20.731Z,95771.00
2022-10-23T01:38:30.814Z,95763.00
2022-10-23T01:38:40.739Z,95768.00
2022-10-23T01:38:50.766Z,95766.00
2022-10-23T01:39:00.948Z,95765.00
2022-10-23T01:39:10.877Z,95768.00
2022-10-23T01:39:20.881Z,95767.00
2022-10-23T01:39:30.619Z,95766.00
2022-10-23T01:39:40.843Z,95769.00
2022-10-23T01:39:50.694Z,95768.00
2022-10-23T01:40:00.892Z,95770.00
2022-10-23T01:40:10.736Z,95767.00
2022-10-23T01:40:20.679Z,95772.00
2022-10-23T01:40:30.873Z,95775.00
2022-10-23T01:40:40.919Z,95769.00
2022-10-23T01:40:50.658Z,95773.00
2022-10-23T01:41:00.858Z,95773.00
2022-10-23T01:41:10.683Z,95775.00
2022-10-23T01:41:20.808Z,95775.00
2022-10-23T01:41:30.700Z,95777.00
2022-10-23T01:41:40.747Z,95776.00
2022-10-23T01:41:50.830Z,95772.00
2022-10-23T01:42:00.695Z,95773.00
2022-10-23T01:42:10.904Z,95778.00
2022-10-23T01:42:20.675Z,95775.00
2022-10-23T01:42:30.656Z,95777.00
2022-10-23T01:42:41.116Z,95779.00
2022-10-23T01:42:50.812Z,95779.00
2022-10-23T01:43:00.864Z,95778.00
2022-10-23T01:43:10.729Z,95778.00
2022-10-23T01:43:20.750Z,95778.00
2022-10-23T01:43:30.730Z,95779.00
2022-10-23T01:43:40.755Z,95782.00
2022-10-23T01:43:50.867Z,95778.00
2022-10-23T01:44:00.865Z,95784.00
2022-10-23T01:44:10.733Z,95780.00
2022-10-23T01:44:20.882Z,95780.00
2022-10-23T01:44:30.655Z,95778.00
2022-10-23T01:44:40.740Z,95782.00
2022-10-23T01:44:50.913Z,95786.00
2022-10-23T01:45:00.851Z,95782.00
2022-10-23T01:45:10.677Z,95780.00
2022-10-23T01:45:20.829Z,95778.00
2022-10-23T01:45:30.862Z,95781.00
2022-10-23T01:45:40.801Z,95775.00
2022-10-23T01:45:50.689Z,95781.00
2022-10-23T01:46:00.868Z,95781.00
2022-10-23T01:46:10.685Z,95779.00
2022-10-23T01:46:20.732Z,95779.00
2022-10-23T01:46:30.813Z,95778.00
2022-10-23T01:46:40.827Z,95782.00
2022-10-23T01:46:50.619Z,95781.00
2022-10-23T01:47:00.865Z,95782.00
2022-10-23T01:47:10.651Z,95782.00
2022-10-23T01:47:30.894Z,95782.00
2022-10-23T01:47:41.072Z,95780.00
2022-10-23T01:47:50.830Z,95777.00
2022-10-23T01:48:00.865Z,95778.00
2022-10-23T01:48:10.931Z,95778.00
2022-10-23T01:48:20.774Z,95779.00
2022-10-23T01:48:30.764Z,95777.00
2022-10-23T01:48:40.757Z,95779.00
2022-10-23T01:48:50.724Z,95776.00
2022-10-23T01:49:00.707Z,95776.00
2022-10-23T01:49:10.635Z,95776.00
2022-10-23T01:49:20.697Z,95774.00
2022-10-23T01:49:30.932Z,95777.00
2022-10-23T01:49:40.703Z,95776.00
2022-10-23T01:49:50.752Z,95773.00
2022-10-23T01:50:00.843Z,95772.00
2022-10-23T01:50:10.812Z,95775.00
2022-10-23T01:50:20.785Z,95773.00
2022-10-23T01:50:30.841Z,95773.00
2022-10-23T01:50:40.607Z,95772.00
2022-10-23T01:50:50.713Z,95772.00
2022-10-23T01:51:00.652Z,95773.00
2022-10-23T01:51:10.638Z,95770.00
2022-10-23T01:51:20.915Z,95770.00
2022-10-23T01:51:30.858Z,95770.00
2022-10-23T01:51:40.690Z,95768.00
2022-10-23T01:51:50.938Z,95771.00
2022-10-23T01:52:00.864Z,95769.00
2022-10-23T01:52:10.646Z,95770.00
2022-10-23T01:52:20.887Z,95771.00
2022-10-23T01:52:30.727Z,95770.00
2022-10-23T01:52:40.882Z,95770.00
2022-10-23T01:52:50.763Z,95767.00
2022-10-23T01:53:00.672Z,95767.00
2022-10-23T01:53:10.892Z,95771.00
2022-10-23T01:53:20.743Z,95767.00
2022-10-23T01:53:30.671Z,95766.00
2022-10-23T01:53:40.915Z,95766.00
2022-10-23T01:53:50.638Z,95768.00
2022-10-23T01:54:00.689Z,95766.00
2022-10-23T01:54:10.630Z,95765.00
2022-10-23T01:54:20.788Z,95764.00
2022-10-23T01:54:30.800Z,95765.00
2022-10-23T01:54:40.771Z,95763.00
2022-10-23T01:54:50.886Z,95765.00
2022-10-23T01:55:00.873Z,95760.00
2022-10-23T01:55:10.701Z,95764.00
2022-10-23T01:55:20.643Z,95763.00
2022-10-23T01:55:30.912Z,95758.00
2022-10-23T01:55:50.932Z,95759.00
2022-10-23T01:56:00.720Z,95756.00
2022-10-23T01:56:10.693Z,95760.00
2022-10-23T01:56:20.816Z,95758.00
2022-10-23T01:56:30.871Z,95761.00
2022-10-23T01:56:40.775Z,95757.00
2022-10-23T01:56:50.752Z,95756.00
2022-10-23T01:57:00.822Z,95760.00
2022-10-23T01:57:10.647Z,95759.00
2022-10-23T01:57:20.756Z,95757.00
2022-10-23T01:57:30.681Z,95759.00
2022-10-23T01:57:40.977Z,95758.00
2022-10-23T01:57:50.654Z,95759.00
2022-10-23T01:58:00.641Z,95757.00
2022-10-23T01:58:10.828Z,95760.00
2022-10-23T01:58:20.616Z,95758.00
2022-10-23T01:58:30.750Z,95754.00
2022-10-23T01:58:40.887Z,95755.00
2022-10-23T01:58:50.674Z,95756.00